Time;durP1;ratioP1;P1;durP2;ratioP2;P2;SDS_P1;SDS_P2;PMS_P1;PMS_P2;Temp;Humidity;BMP_temperature;BMP_pressure;BME280_temperature;BME280_humidity;BME280_pressure;Samples;Min_cycle;Max_cycle;Signal;HPM_P1;HPM_P2
2020/12/25 00:00:15;;;;;;;63.63;31.23;;;;;;;7.57;84.61;99745.56;127740;1091;104532;-73
2020/12/25 00:03:02;;;;;;;66.83;30.57;;;;;;;7.55;84.49;99734.19;127746;1091;104426;-74
2020/12/25 00:05:31;;;;;;;60.07;29.27;;;;;;;7.56;84.53;99729.02;127752;1092;104422;-72
2020/12/25 00:08:00;;;;;;;69.20;34.97;;;;;;;7.54;84.23;99738.53;127782;1091;104545;-74
2020/12/25 00:10:29;;;;;;;69.20;33.47;;;;;;;7.55;83.88;99761.17;127691;1091;104413;-73
2020/12/25 00:12:58;;;;;;;63.93;29.20;;;;;;;7.61;84.50;99785.75;127717;1091;104481;-73
2020/12/25 00:15:26;;;;;;;70.80;34.63;;;;;;;7.65;84.69;99795.45;127807;1091;104420;-73
2020/12/25 00:17:55;;;;;;;72.00;35.03;;;;;;;7.70;84.79;99791.30;127344;1093;104512;-74
2020/12/25 00:20:24;;;;;;;64.77;31.57;;;;;;;7.72;84.34;99780.05;127790;1092;104452;-74
2020/12/25 00:22:53;;;;;;;68.17;32.60;;;;;;;7.71;84.37;99761.72;127792;1092;104607;-72
2020/12/25 00:25:23;;;;;;;73.13;35.73;;;;;;;7.67;84.26;99757.24;127770;1091;104416;-74
2020/12/25 00:27:52;;;;;;;67.80;31.87;;;;;;;7.61;84.04;99754.41;127760;1091;105047;-71
2020/12/25 00:30:20;;;;;;;64.33;29.23;;;;;;;7.59;84.25;99754.36;127739;1091;104542;-72
2020/12/25 00:32:49;;;;;;;71.30;31.37;;;;;;;7.56;84.39;99760.34;127820;1091;104416;-72
2020/12/25 00:35:18;;;;;;;65.73;29.13;;;;;;;7.56;83.92;99767.30;127778;1091;104539;-73
2020/12/25 00:37:47;;;;;;;58.87;27.10;;;;;;;7.59;83.86;99761.28;127770;1092;104407;-71
2020/12/25 00:40:16;;;;;;;72.50;31.57;;;;;;;7.57;84.08;99756.00;127792;1091;104447;-73
2020/12/25 00:42:45;;;;;;;65.47;30.33;;;;;;;7.56;84.24;99742.07;127804;1092;104489;-73
2020/12/25 00:45:14;;;;;;;69.53;30.17;;;;;;;7.53;84.42;99743.69;127823;1092;104471;-73
2020/12/25 00:47:43;;;;;;;64.93;29.07;;;;;;;7.51;84.43;99738.42;127794;1091;104417;-73
2020/12/25 00:50:13;;;;;;;71.83;31.70;;;;;;;7.49;84.53;99740.06;127747;1092;104855;-73
2020/12/25 00:52:42;;;;;;;57.13;23.43;;;;;;;7.47;84.56;99733.91;127746;1091;104305;-73
2020/12/25 00:55:11;;;;;;;70.53;30.90;;;;;;;7.44;84.29;99741.63;127826;1091;104413;-74
2020/12/25 00:57:40;;;;;;;69.70;28.97;;;;;;;7.46;84.49;99739.08;127821;1091;104478;-72
2020/12/25 01:00:22;;;;;;;71.20;31.30;;;;;;;7.44;83.87;99746.84;127825;1092;104417;-73
2020/12/25 01:02:50;;;;;;;71.20;33.40;;;;;;;7.45;84.25;99738.20;127733;1092;104542;-73
2020/12/25 01:05:19;;;;;;;73.23;34.57;;;;;;;7.49;84.28;99729.63;127354;1093;104465;-72
2020/12/25 01:07:48;;;;;;;76.37;34.67;;;;;;;7.52;84.18;99723.63;127775;1091;104410;-73
2020/12/25 01:10:18;;;;;;;74.23;34.37;;;;;;;7.53;84.67;99715.86;127829;1091;104414;-75
2020/12/25 01:12:47;;;;;;;71.70;32.13;;;;;;;7.56;84.72;99721.19;127825;1091;104573;-73
2020/12/25 01:15:16;;;;;;;77.83;34.23;;;;;;;7.56;84.16;99721.19;127754;1092;104444;-73
2020/12/25 01:17:44;;;;;;;77.13;35.17;;;;;;;7.59;84.46;99720.41;127775;1092;104598;-74
2020/12/25 01:20:14;;;;;;;69.77;32.50;;;;;;;7.61;84.56;99718.73;127779;1091;104443;-73
2020/12/25 01:22:43;;;;;;;57.13;25.87;;;;;;;7.60;84.36;99718.68;127807;1092;104427;-74
2020/12/25 01:25:11;;;;;;;75.37;32.87;;;;;;;7.56;84.14;99720.30;127777;1092;104423;-72
2020/12/25 01:27:40;;;;;;;68.20;31.53;;;;;;;7.60;84.33;99706.50;127774;1092;104557;-73
2020/12/25 01:30:09;;;;;;;74.43;34.10;;;;;;;7.56;84.13;99700.30;127801;1091;104490;-72
2020/12/25 01:32:38;;;;;;;54.07;23.60;;;;;;;7.51;84.22;99686.20;127813;1092;104433;-72
2020/12/25 01:35:07;;;;;;;71.63;31.70;;;;;;;7.45;84.23;99682.47;127792;1092;104476;-73
2020/12/25 01:37:36;;;;;;;70.20;30.37;;;;;;;7.42;83.81;99684.97;127780;1091;104541;-72
2020/12/25 01:40:06;;;;;;;73.33;33.73;;;;;;;7.43;84.26;99685.03;127788;1091;105156;-73
2020/12/25 01:42:37;;;;;;;73.87;32.13;;;;;;;7.46;84.16;99679.03;127789;1093;104439;-73
2020/12/25 01:45:06;;;;;;;75.93;33.20;;;;;;;7.46;84.06;99677.30;127764;1091;104516;-73
2020/12/25 01:47:35;;;;;;;74.57;32.33;;;;;;;7.46;84.11;99674.69;127814;1091;104540;-74
2020/12/25 01:50:04;;;;;;;76.63;33.47;;;;;;;7.52;83.99;99690.57;127790;1091;104544;-75
2020/12/25 01:52:35;;;;;;;73.83;31.90;;;;;;;7.56;84.42;99684.63;127732;1092;104429;-72
2020/12/25 01:55:05;;;;;;;72.37;34.07;;;;;;;7.55;83.86;99687.19;127755;1091;104917;-72
2020/12/25 01:57:35;;;;;;;75.20;33.00;;;;;;;7.58;84.58;99683.81;127774;1091;104401;-72
2020/12/25 02:00:07;;;;;;;78.50;34.17;;;;;;;7.57;84.33;99680.29;127794;1091;104429;-72
2020/12/25 02:02:40;;;;;;;82.97;35.07;;;;;;;7.58;84.34;99676.86;127779;1091;104413;-72
2020/12/25 02:05:09;;;;;;;73.27;32.77;;;;;;;7.60;84.09;99687.35;127747;1092;104484;-73
2020/12/25 02:07:40;;;;;;;76.27;33.53;;;;;;;7.62;84.59;99677.84;127745;1092;104439;-73
2020/12/25 02:10:09;;;;;;;74.87;33.93;;;;;;;7.63;84.47;99671.79;127773;1091;104539;-72
2020/12/25 02:12:38;;;;;;;81.00;35.47;;;;;;;7.63;84.22;99671.79;127809;1091;104479;-73
2020/12/25 02:15:08;;;;;;;69.83;31.17;;;;;;;7.62;84.22;99670.91;127780;1091;104407;-72
2020/12/25 02:17:44;;;;;;;80.03;34.30;;;;;;;7.60;84.30;99669.95;127739;1091;104417;-72
2020/12/25 02:20:13;;;;;;;75.43;32.57;;;;;;;7.58;83.99;99669.02;127769;1092;104465;-73
2020/12/25 02:22:43;;;;;;;78.13;34.63;;;;;;;7.62;83.85;99670.00;127790;1092;104416;-74
2020/12/25 02:25:12;;;;;;;68.20;31.55;;;;;;;7.64;84.10;99668.36;127790;1091;104557;-73
2020/12/25 02:27:41;;;;;;;73.13;31.87;;;;;;;7.63;84.25;99669.18;127806;1091;104569;-74
2020/12/25 02:30:10;;;;;;;68.00;30.07;;;;;;;7.62;83.91;99670.00;127787;1092;104410;-72
2020/12/25 02:32:38;;;;;;;77.27;33.70;;;;;;;7.60;84.44;99659.50;127783;1091;104481;-73
2020/12/25 02:35:08;;;;;;;64.97;28.77;;;;;;;7.62;84.14;99656.95;127790;1091;104535;-72
2020/12/25 02:37:37;;;;;;;65.60;29.97;;;;;;;7.58;83.67;99652.48;127788;1091;104469;-72
2020/12/25 02:40:06;;;;;;;72.10;31.73;;;;;;;7.51;84.22;99654.88;127790;1092;104484;-72
2020/12/25 02:42:35;;;;;;;71.37;29.57;;;;;;;7.45;83.61;99649.45;127764;1091;104499;-72
2020/12/25 02:45:05;;;;;;;81.07;33.13;;;;;;;7.38;84.28;99644.84;127803;1091;104407;-72
2020/12/25 02:47:35;;;;;;;85.80;34.30;;;;;;;7.36;84.00;99644.78;127794;1091;104410;-73
2020/12/25 02:50:04;;;;;;;79.90;33.97;;;;;;;7.35;84.22;99644.73;127754;1092;104420;-73
2020/12/25 02:52:33;;;;;;;68.47;29.93;;;;;;;7.35;84.31;99656.08;127798;1092;104405;-73
2020/12/25 02:55:02;;;;;;;73.07;31.30;;;;;;;7.34;83.90;99653.41;127778;1091;104413;-73
2020/12/25 02:57:31;;;;;;;73.30;32.63;;;;;;;7.34;84.22;99654.29;127815;1091;104414;-73
2020/12/25 03:00:00;;;;;;;72.25;31.10;;;;;;;7.37;83.94;99666.58;127801;1091;104410;-73
2020/12/25 03:02:29;;;;;;;68.07;31.20;;;;;;;7.40;84.39;99668.38;127809;1092;104500;-73
2020/12/25 03:04:58;;;;;;;68.87;30.83;;;;;;;7.40;84.08;99650.11;127756;1092;104417;-73
2020/12/25 03:07:27;;;;;;;71.33;29.90;;;;;;;7.35;84.21;99642.12;127792;1091;104433;-74
2020/12/25 03:09:56;;;;;;;69.13;30.67;;;;;;;7.29;84.01;99642.81;127800;1092;104583;-73
2020/12/25 03:12:25;;;;;;;51.23;22.37;;;;;;;7.26;84.25;99652.23;127778;1091;104859;-74
2020/12/25 03:14:54;;;;;;;63.73;28.13;;;;;;;7.20;83.73;99659.02;127822;1092;104573;-74
2020/12/25 03:17:23;;;;;;;62.43;28.20;;;;;;;7.22;83.87;99656.47;127813;1092;104526;-73
2020/12/25 03:19:51;;;;;;;63.60;27.53;;;;;;;7.23;84.26;99657.34;127771;1091;104446;-73
2020/12/25 03:22:20;;;;;;;64.37;28.13;;;;;;;7.23;84.27;99659.95;127806;1092;104433;-73
2020/12/25 03:24:49;;;;;;;63.43;27.80;;;;;;;7.26;84.28;99655.75;127816;1092;104536;-73
2020/12/25 03:27:18;;;;;;;67.43;29.00;;;;;;;7.29;84.01;99663.69;127822;1092;104455;-73
2020/12/25 03:29:47;;;;;;;68.27;29.87;;;;;;;7.27;84.01;99657.51;127797;1091;104519;-74
2020/12/25 03:32:16;;;;;;;69.67;30.13;;;;;;;7.29;83.97;99657.56;127779;1091;104410;-73
2020/12/25 03:34:45;;;;;;;61.80;26.87;;;;;;;7.28;84.09;99661.03;127799;1091;104413;-73
2020/12/25 03:37:14;;;;;;;67.67;29.67;;;;;;;7.23;84.22;99658.25;127822;1092;104465;-74
2020/12/25 03:39:43;;;;;;;68.53;28.63;;;;;;;7.20;83.57;99666.84;127821;1092;104524;-73
2020/12/25 03:42:11;;;;;;;67.17;28.43;;;;;;;7.19;84.13;99662.45;127814;1092;104654;-74
2020/12/25 03:44:40;;;;;;;66.37;27.70;;;;;;;7.22;83.83;99671.25;127774;1091;104542;-73
2020/12/25 03:47:09;;;;;;;67.37;28.40;;;;;;;7.24;83.63;99669.57;127788;1092;104424;-73
2020/12/25 03:49:38;;;;;;;61.40;26.93;;;;;;;7.24;84.04;99670.45;127775;1091;104544;-74
2020/12/25 03:52:07;;;;;;;72.73;30.27;;;;;;;7.26;83.98;99666.19;127798;1091;104416;-74
2020/12/25 03:54:36;;;;;;;66.93;28.33;;;;;;;7.28;84.24;99664.52;127787;1092;104391;-74
2020/12/25 03:57:05;;;;;;;68.70;29.40;;;;;;;7.27;83.99;99667.95;127758;1092;104475;-74
2020/12/25 03:59:34;;;;;;;66.90;28.43;;;;;;;7.28;83.70;99661.03;127781;1093;104608;-75
2020/12/25 04:02:03;;;;;;;72.80;29.13;;;;;;;7.24;83.83;99660.00;127787;1091;104411;-74
2020/12/25 04:04:32;;;;;;;69.07;28.23;;;;;;;7.24;83.82;99667.84;127814;1091;104414;-74
2020/12/25 04:07:01;;;;;;;65.70;28.03;;;;;;;7.25;84.11;99664.41;127799;1091;104526;-73
2020/12/25 04:09:29;;;;;;;65.63;27.83;;;;;;;7.26;83.80;99665.28;127770;1091;104955;-73
2020/12/25 04:11:58;;;;;;;73.03;28.93;;;;;;;7.25;84.21;99663.52;127789;1091;104411;-73
2020/12/25 04:14:27;;;;;;;71.43;28.97;;;;;;;7.26;83.80;99665.28;127763;1092;104477;-73
2020/12/25 04:16:56;;;;;;;68.40;27.20;;;;;;;7.26;83.57;99674.02;127758;1091;104417;-73
2020/12/25 04:19:25;;;;;;;64.07;27.67;;;;;;;7.25;84.11;99677.45;127853;1092;104566;-74
2020/12/25 04:21:54;;;;;;;63.65;27.70;;;;;;;7.27;83.66;99685.34;127831;1092;104552;-74
2020/12/25 04:24:23;;;;;;;67.70;29.03;;;;;;;7.27;83.60;99680.99;127863;1092;104427;-74
2020/12/25 04:26:52;;;;;;;65.20;26.23;;;;;;;7.30;83.72;99685.45;127809;1091;104435;-73
2020/12/25 04:29:21;;;;;;;65.97;28.73;;;;;;;7.28;83.48;99676.69;127844;1091;104476;-74
2020/12/25 04:31:50;;;;;;;71.20;28.00;;;;;;;7.27;84.11;99677.51;127818;1092;104558;-73
2020/12/25 04:34:19;;;;;;;67.30;26.17;;;;;;;7.24;84.20;99672.17;127763;1092;104417;-74
2020/12/25 04:36:47;;;;;;;65.37;27.17;;;;;;;7.26;84.16;99673.11;127796;1091;104414;-73
2020/12/25 04:39:16;;;;;;;66.97;27.57;;;;;;;7.27;83.64;99677.51;127802;1091;104471;-74
2020/12/25 04:41:45;;;;;;;61.87;26.43;;;;;;;7.28;83.69;99681.91;127790;1091;104410;-73
2020/12/25 04:44:14;;;;;;;68.03;28.53;;;;;;;7.31;84.07;99688.11;127678;1091;104542;-75
2020/12/25 04:46:43;;;;;;;66.87;27.83;;;;;;;7.33;83.81;99696.00;127764;1091;104604;-72
2020/12/25 04:49:13;;;;;;;63.43;26.63;;;;;;;7.33;83.49;99690.77;127754;1091;104407;-75
2020/12/25 04:51:42;;;;;;;69.87;28.13;;;;;;;7.31;83.46;99695.06;127792;1092;104414;-73
2020/12/25 04:54:11;;;;;;;61.30;26.00;;;;;;;7.32;83.66;99694.20;127799;1091;104534;-72
2020/12/25 04:56:40;;;;;;;65.20;27.47;;;;;;;7.27;83.62;99696.65;127791;1091;104407;-72
2020/12/25 04:59:08;;;;;;;68.13;28.77;;;;;;;7.29;83.48;99695.01;127671;1092;104414;-73
2020/12/25 05:01:41;;;;;;;61.53;26.87;;;;;;;7.31;84.02;99685.50;127780;1091;104417;-72
2020/12/25 05:04:20;;;;;;;63.67;26.40;;;;;;;7.31;83.76;99695.06;127752;1092;104417;-73
2020/12/25 05:06:51;;;;;;;63.30;26.83;;;;;;;7.32;84.10;99700.34;127788;1091;104603;-72
2020/12/25 05:09:23;;;;;;;59.40;26.53;;;;;;;7.32;83.60;99688.98;127653;1092;104481;-74
2020/12/25 05:11:53;;;;;;;63.63;28.13;;;;;;;7.31;83.72;99685.50;127686;1091;104410;-75
2020/12/25 05:14:27;;;;;;;68.37;29.23;;;;;;;7.31;83.53;99702.89;127709;1092;104477;-73
2020/12/25 05:16:58;;;;;;;70.20;29.55;;;;;;;7.28;83.56;99721.05;127754;1091;104423;-73
2020/12/25 05:19:29;;;;;;;68.33;27.57;;;;;;;7.26;83.75;99709.64;127775;1091;104430;-73
2020/12/25 05:22:00;;;;;;;67.00;27.67;;;;;;;7.26;83.84;99727.91;127790;1091;104484;-75
2020/12/25 05:24:38;;;;;;;66.63;27.47;;;;;;;7.28;83.79;99714.09;127734;1092;104411;-72
2020/12/25 05:27:13;;;;;;;60.77;26.17;;;;;;;7.32;84.07;99728.13;127487;1091;104417;-76
2020/12/25 05:29:43;;;;;;;62.53;27.70;;;;;;;7.32;84.02;99725.52;127757;1092;104954;-73
2020/12/25 05:32:15;;;;;;;64.63;27.97;;;;;;;7.30;83.86;99716.77;127821;1091;104856;-73
2020/12/25 05:34:46;;;;;;;70.93;31.40;;;;;;;7.29;84.20;99720.19;127777;1092;104522;-72
2020/12/25 05:37:16;;;;;;;73.80;30.83;;;;;;;7.31;83.82;99736.82;127684;1092;104413;-74
2020/12/25 05:39:47;;;;;;;66.00;27.20;;;;;;;7.29;83.48;99720.19;127645;1092;104439;-74
2020/12/25 05:42:17;;;;;;;63.80;25.87;;;;;;;7.27;83.81;99729.70;127763;1092;104417;-74
2020/12/25 05:44:48;;;;;;;64.93;29.03;;;;;;;7.23;83.26;99722.58;127804;1092;104542;-73
2020/12/25 05:47:18;;;;;;;66.07;28.30;;;;;;;7.27;84.10;99725.36;127688;1091;104942;-74
2020/12/25 05:49:48;;;;;;;68.33;28.57;;;;;;;7.30;83.41;99716.77;127493;1092;104478;-73
2020/12/25 05:52:17;;;;;;;72.17;30.03;;;;;;;7.34;83.76;99713.44;127691;1091;104542;-73
2020/12/25 05:54:49;;;;;;;70.40;28.33;;;;;;;7.33;83.79;99715.14;127796;1091;104410;-73
2020/12/25 05:57:21;;;;;;;75.97;30.73;;;;;;;7.31;83.42;99728.98;127754;1091;104423;-73
2020/12/25 05:59:54;;;;;;;66.23;27.40;;;;;;;7.31;83.46;99719.42;127768;1092;104538;-73
2020/12/25 06:02:24;;;;;;;77.37;30.80;;;;;;;7.27;83.85;99727.97;127642;1091;104465;-75
2020/12/25 06:04:56;;;;;;;73.53;29.53;;;;;;;7.26;83.51;99726.21;127545;1092;104564;-73
2020/12/25 06:07:29;;;;;;;68.17;28.07;;;;;;;7.25;83.67;99716.59;127567;1091;104567;-73
2020/12/25 06:10:00;;;;;;;69.03;28.03;;;;;;;7.19;83.35;99737.24;127574;1092;104410;-74
2020/12/25 06:12:41;;;;;;;71.40;29.60;;;;;;;7.16;83.66;99737.13;128930;1092;103058;-73
2020/12/25 06:15:12;;;;;;;67.90;28.07;;;;;;;7.16;83.53;99737.13;127731;1093;104446;-76
2020/12/25 06:17:47;;;;;;;72.60;30.67;;;;;;;7.15;83.75;99753.60;127425;1093;104429;-75
2020/12/25 06:20:18;;;;;;;69.40;28.45;;;;;;;7.16;83.48;99751.05;127513;1091;104484;-73
2020/12/25 06:22:47;;;;;;;69.70;30.10;;;;;;;7.18;83.42;99754.63;127735;1091;104432;-73
2020/12/25 06:25:17;;;;;;;68.80;29.10;;;;;;;7.23;83.98;99746.97;127768;1092;104560;-72
2020/12/25 06:27:50;;;;;;;71.97;29.00;;;;;;;7.24;83.32;99756.56;127597;1092;104542;-73
2020/12/25 06:30:30;;;;;;;70.37;29.67;;;;;;;7.27;83.59;99761.02;127790;1092;104429;-72
2020/12/25 06:32:59;;;;;;;69.80;29.57;;;;;;;7.29;84.06;99756.73;127615;1091;104478;-74
2020/12/25 06:35:31;;;;;;;69.97;29.33;;;;;;;7.31;83.64;99761.19;127750;1092;104539;-72
2020/12/25 06:38:05;;;;;;;71.90;29.73;;;;;;;7.31;83.33;99762.91;127746;1091;104417;-72
2020/12/25 06:40:34;;;;;;;64.57;28.37;;;;;;;7.34;83.75;99765.64;127772;1092;104423;-72
2020/12/25 06:43:03;;;;;;;67.23;29.47;;;;;;;7.35;83.68;99756.95;127811;1092;104593;-73
2020/12/25 06:45:32;;;;;;;59.87;24.63;;;;;;;7.35;83.48;99763.09;127764;1091;104469;-74
2020/12/25 06:48:13;;;;;;;61.33;25.37;;;;;;;7.27;83.20;99780.16;127785;1091;104435;-74
2020/12/25 06:50:45;;;;;;;63.93;26.13;;;;;;;7.19;83.15;99782.48;127749;1091;104551;-73
2020/12/25 06:53:33;;;;;;;58.00;25.83;;;;;;;7.17;83.59;99791.98;127787;1091;104410;-74
2020/12/25 06:56:14;;;;;;;63.13;27.40;;;;;;;7.22;83.64;99786.94;127769;1092;104594;-72
2020/12/25 06:58:46;;;;;;;64.00;26.97;;;;;;;7.29;83.94;99790.66;127758;1091;104453;-72
2020/12/25 07:01:17;;;;;;;61.40;26.00;;;;;;;7.32;83.98;99795.98;127786;1091;104861;-72
2020/12/25 07:03:46;;;;;;;57.83;26.03;;;;;;;7.36;83.82;99784.84;127678;1091;104632;-71
2020/12/25 07:06:15;;;;;;;56.03;25.40;;;;;;;7.41;83.66;99788.50;127691;1092;104416;-72
2020/12/25 07:08:53;;;;;;;59.23;27.03;;;;;;;7.48;83.72;99785.30;127741;1091;104602;-72
2020/12/25 07:11:22;;;;;;;55.50;25.00;;;;;;;7.55;83.98;99789.89;127673;1092;104439;-74
2020/12/25 07:13:50;;;;;;;58.23;26.63;;;;;;;7.60;83.99;99781.34;127765;1092;104414;-73
2020/12/25 07:16:20;;;;;;;56.77;25.00;;;;;;;7.62;83.22;99784.89;127748;1091;104410;-73
2020/12/25 07:18:49;;;;;;;62.33;26.17;;;;;;;7.64;83.95;99794.56;127763;1091;104436;-73
2020/12/25 07:21:18;;;;;;;59.57;26.17;;;;;;;7.70;84.14;99796.52;127785;1092;104475;-72
2020/12/25 07:23:48;;;;;;;56.97;25.17;;;;;;;7.75;84.07;99792.34;127776;1091;104410;-73
2020/12/25 07:26:17;;;;;;;59.23;25.57;;;;;;;7.83;83.31;99801.33;127803;1091;104410;-73
2020/12/25 07:28:47;;;;;;;57.30;26.53;;;;;;;7.89;83.81;99798.94;127798;1091;104544;-73
2020/12/25 07:31:19;;;;;;;58.40;25.97;;;;;;;7.91;83.88;99791.16;127747;1092;104433;-73
2020/12/25 07:33:54;;;;;;;59.67;28.40;;;;;;;7.91;83.12;99791.16;127840;1092;104420;-73
2020/12/25 07:36:25;;;;;;;58.97;27.20;;;;;;;7.88;83.62;99799.80;127817;1092;104481;-74
2020/12/25 07:39:04;;;;;;;61.03;28.07;;;;;;;7.89;83.02;99798.94;127790;1091;104414;-73
2020/12/25 07:41:36;;;;;;;63.00;27.83;;;;;;;7.90;83.43;99784.17;127779;1091;104714;-75
2020/12/25 07:44:05;;;;;;;64.03;27.13;;;;;;;7.89;82.98;99788.48;127696;1091;104544;-73
2020/12/25 07:46:34;;;;;;;63.03;26.83;;;;;;;7.84;83.32;99789.18;127728;1091;104407;-74
2020/12/25 07:49:04;;;;;;;64.33;27.93;;;;;;;7.78;83.29;99789.84;127569;1091;104410;-75
2020/12/25 07:51:34;;;;;;;64.30;28.80;;;;;;;7.73;83.48;99776.62;127593;1091;104445;-74
2020/12/25 07:54:04;;;;;;;59.17;25.47;;;;;;;7.70;83.13;99778.24;127648;1091;104551;-73
2020/12/25 07:56:34;;;;;;;60.20;25.67;;;;;;;7.66;83.02;99784.18;127717;1092;104603;-73
2020/12/25 07:59:04;;;;;;;56.80;25.20;;;;;;;7.60;83.31;99779.61;127775;1091;104497;-74
2020/12/25 08:01:34;;;;;;;57.13;25.00;;;;;;;7.58;83.35;99783.02;127811;1091;104487;-72
2020/12/25 08:04:05;;;;;;;57.73;25.10;;;;;;;7.58;83.47;99780.41;127688;1091;104529;-72
2020/12/25 08:06:36;;;;;;;59.47;26.50;;;;;;;7.65;83.24;99796.36;127684;1092;104445;-72
2020/12/25 08:09:10;;;;;;;64.77;28.17;;;;;;;7.71;83.21;99790.44;127715;1091;104410;-76
2020/12/25 08:11:41;;;;;;;57.30;26.80;;;;;;;7.80;83.76;99796.00;128039;1091;104442;-73
2020/12/25 08:14:17;;;;;;;68.47;28.23;;;;;;;7.84;83.57;99800.50;127761;1092;104439;-74
2020/12/25 08:16:49;;;;;;;66.50;28.23;;;;;;;7.84;83.24;99797.89;127716;1092;104504;-73
2020/12/25 08:19:19;;;;;;;68.93;30.07;;;;;;;7.84;83.47;99797.02;127738;1092;104442;-75
2020/12/25 08:21:48;;;;;;;71.07;31.73;;;;;;;7.87;83.57;99794.52;127755;1091;104577;-74
2020/12/25 08:24:19;;;;;;;64.67;28.40;;;;;;;7.88;83.51;99791.95;127759;1091;104471;-74
2020/12/25 08:26:49;;;;;;;65.17;28.20;;;;;;;7.92;83.56;99803.39;127799;1091;104417;-72
2020/12/25 08:29:19;;;;;;;68.07;29.57;;;;;;;7.95;83.42;99807.81;127789;1092;104418;-75
2020/12/25 08:31:48;;;;;;;69.30;30.17;;;;;;;8.00;82.97;99801.05;127776;1091;104531;-73
2020/12/25 08:34:21;;;;;;;70.33;31.87;;;;;;;8.07;83.53;99800.41;127774;1091;104551;-74
2020/12/25 08:36:58;;;;;;;67.87;28.55;;;;;;;8.11;82.82;99815.36;127804;1092;103131;-74
2020/12/25 08:39:29;;;;;;;63.20;29.60;;;;;;;8.18;83.26;99812.14;127696;1092;104426;-74
2020/12/25 08:41:58;;;;;;;69.13;30.97;;;;;;;8.23;83.79;99805.33;127824;1091;104545;-74
2020/12/25 08:44:28;;;;;;;71.77;32.27;;;;;;;8.27;82.82;99798.47;127783;1091;104404;-74
2020/12/25 08:47:08;;;;;;;71.33;31.13;;;;;;;8.29;83.37;99802.05;127754;1092;104542;-74
2020/12/25 08:49:38;;;;;;;71.10;30.90;;;;;;;8.33;83.25;99795.19;127846;1092;104414;-74
2020/12/25 08:52:21;;;;;;;72.50;32.53;;;;;;;8.35;82.89;99793.50;127826;1092;104536;-74
2020/12/25 08:54:56;;;;;;;66.03;29.90;;;;;;;8.42;83.53;99801.60;127822;1092;104411;-74
2020/12/25 08:57:28;;;;;;;66.27;30.60;;;;;;;8.44;83.26;99807.79;127835;1091;104477;-74
2020/12/25 09:00:09;;;;;;;66.47;30.60;;;;;;;8.51;83.31;99803.67;127751;1091;104506;-75
2020/12/25 09:02:41;;;;;;;68.20;30.50;;;;;;;8.56;82.76;99795.98;127760;1092;104411;-75
2020/12/25 09:05:10;;;;;;;67.13;30.10;;;;;;;8.62;82.48;99801.41;127523;1092;104512;-75
2020/12/25 09:07:39;;;;;;;67.83;31.37;;;;;;;8.70;82.59;99801.66;127654;1092;104653;-74
2020/12/25 09:10:07;;;;;;;63.10;29.53;;;;;;;8.74;82.86;99800.90;127801;1092;104584;-73
2020/12/25 09:12:36;;;;;;;72.27;32.03;;;;;;;8.78;82.84;99794.94;127704;1091;104433;-74
2020/12/25 09:15:05;;;;;;;62.50;29.40;;;;;;;8.85;82.47;99793.39;127647;1092;104859;-75
2020/12/25 09:17:34;;;;;;;66.63;28.67;;;;;;;8.92;82.60;99793.63;127619;1092;104404;-75
2020/12/25 09:20:04;;;;;;;55.77;27.43;;;;;;;9.01;83.18;99793.03;127602;1091;104426;-74
2020/12/25 09:22:33;;;;;;;66.30;29.53;;;;;;;9.09;82.31;99790.66;127796;1091;104500;-74
2020/12/25 09:25:02;;;;;;;61.20;28.87;;;;;;;9.13;82.25;99793.41;127713;1091;104544;-75
2020/12/25 09:27:32;;;;;;;67.53;30.47;;;;;;;9.15;82.31;99796.08;127806;1091;104410;-73
2020/12/25 09:30:03;;;;;;;63.57;28.23;;;;;;;9.19;82.60;99795.30;127790;1092;104487;-74
2020/12/25 09:32:33;;;;;;;63.30;28.97;;;;;;;9.16;82.38;99798.73;127780;1092;104446;-75
2020/12/25 09:35:03;;;;;;;62.45;28.75;;;;;;;9.15;82.73;99803.93;127724;1092;104478;-74
2020/12/25 09:37:34;;;;;;;58.63;27.47;;;;;;;9.11;82.82;99807.28;127685;1092;104414;-73
2020/12/25 09:40:04;;;;;;;61.23;29.00;;;;;;;9.08;82.80;99804.57;127577;1092;104446;-74
2020/12/25 09:42:33;;;;;;;60.10;28.20;;;;;;;9.10;82.18;99800.26;127704;1092;104407;-73
2020/12/25 09:45:02;;;;;;;56.00;26.73;;;;;;;9.10;81.96;99803.79;127762;1091;104407;-75
2020/12/25 09:47:31;;;;;;;54.20;27.73;;;;;;;9.11;82.64;99804.66;127739;1091;104528;-74
2020/12/25 09:50:00;;;;;;;55.37;26.33;;;;;;;9.13;82.62;99802.97;127714;1092;104411;-74
2020/12/25 09:52:29;;;;;;;56.40;26.93;;;;;;;9.16;82.90;99810.91;127779;1091;104545;-73
2020/12/25 09:54:58;;;;;;;56.77;28.67;;;;;;;9.15;82.64;99793.45;127829;1091;104412;-73
2020/12/25 09:57:27;;;;;;;56.27;26.17;;;;;;;9.14;82.03;99789.05;127819;1092;104541;-73
2020/12/25 09:59:56;;;;;;;56.37;27.47;;;;;;;9.09;82.14;99782.80;127803;1091;104517;-74
2020/12/25 10:02:25;;;;;;;60.10;28.20;;;;;;;9.02;81.97;99793.91;127774;1092;104401;-73
2020/12/25 10:04:54;;;;;;;59.03;28.33;;;;;;;9.02;82.72;99789.55;127774;1092;104411;-73
2020/12/25 10:07:23;;;;;;;57.77;28.17;;;;;;;9.09;82.21;99798.51;127786;1092;104480;-73
2020/12/25 10:09:52;;;;;;;59.63;29.53;;;;;;;9.11;82.39;99791.58;127762;1092;104452;-73
2020/12/25 10:12:21;;;;;;;60.03;28.80;;;;;;;9.08;82.57;99799.34;127645;1092;104481;-76
2020/12/25 10:14:50;;;;;;;62.87;29.80;;;;;;;9.02;81.88;99801.77;127653;1092;104413;-74
2020/12/25 10:17:19;;;;;;;72.97;33.70;;;;;;;8.98;82.65;99799.05;127774;1091;104477;-74
2020/12/25 10:19:50;;;;;;;68.10;33.27;;;;;;;8.99;82.71;99818.25;127815;1092;104535;-73
2020/12/25 10:22:19;;;;;;;65.23;31.27;;;;;;;9.01;82.16;99816.59;127814;1091;104432;-74
2020/12/25 10:24:48;;;;;;;63.97;30.73;;;;;;;9.00;82.06;99809.57;127791;1091;104701;-74
2020/12/25 10:27:17;;;;;;;64.63;31.57;;;;;;;8.99;82.67;99806.08;127781;1091;104994;-74
2020/12/25 10:29:46;;;;;;;63.43;31.30;;;;;;;9.00;81.98;99794.75;127798;1092;104484;-74
2020/12/25 10:32:15;;;;;;;63.33;32.10;;;;;;;9.00;82.70;99796.48;127787;1091;104538;-73
2020/12/25 10:34:43;;;;;;;64.77;32.57;;;;;;;8.97;82.22;99801.63;127808;1091;104522;-73
2020/12/25 10:37:12;;;;;;;66.67;32.17;;;;;;;8.87;82.41;99800.45;127808;1092;104462;-73
2020/12/25 10:39:42;;;;;;;67.97;33.23;;;;;;;8.78;82.22;99806.27;127745;1091;104411;-74
2020/12/25 10:42:14;;;;;;;66.47;34.50;;;;;;;8.71;81.95;99806.03;127678;1091;104468;-76
2020/12/25 10:44:43;;;;;;;65.25;32.00;;;;;;;8.64;82.84;99807.57;127778;1091;104426;-74
2020/12/25 10:47:13;;;;;;;61.90;32.23;;;;;;;8.56;82.10;99812.55;127794;1092;104427;-75
2020/12/25 10:49:42;;;;;;;61.63;29.87;;;;;;;8.46;81.99;99818.30;127798;1092;104981;-75
2020/12/25 10:52:11;;;;;;;63.60;30.70;;;;;;;8.34;82.64;99817.89;127760;1091;104554;-76
2020/12/25 10:54:40;;;;;;;63.33;31.27;;;;;;;8.26;82.22;99820.23;127735;1092;104410;-75
2020/12/25 10:57:08;;;;;;;64.93;32.40;;;;;;;8.25;82.34;99828.91;127620;1092;104449;-76
2020/12/25 10:59:37;;;;;;;61.17;30.40;;;;;;;8.22;82.76;99828.80;127632;1092;104427;-75
2020/12/25 11:02:07;;;;;;;65.87;33.57;;;;;;;8.18;83.07;99821.68;127643;1092;104404;-76
2020/12/25 11:04:38;;;;;;;65.63;33.37;;;;;;;8.17;82.91;99825.16;127768;1091;104480;-75
2020/12/25 11:07:07;;;;;;;65.90;32.85;;;;;;;8.17;82.53;99828.64;127808;1092;104586;-75
2020/12/25 11:09:38;;;;;;;75.33;37.90;;;;;;;8.17;82.34;99823.42;127756;1092;104449;-75
2020/12/25 11:12:09;;;;;;;78.53;38.93;;;;;;;8.21;82.74;99837.47;127752;1092;104410;-76
2020/12/25 11:14:39;;;;;;;65.40;33.47;;;;;;;8.21;82.23;99840.99;127717;1091;104471;-75
2020/12/25 11:17:08;;;;;;;63.47;32.53;;;;;;;8.19;82.25;99844.38;127673;1092;104551;-75
2020/12/25 11:19:37;;;;;;;63.57;32.37;;;;;;;8.18;82.96;99842.59;127650;1092;104436;-75
2020/12/25 11:22:11;;;;;;;63.03;31.87;;;;;;;8.14;82.86;99844.22;127721;1091;104862;-74